Time;durP1;ratioP1;P1;durP2;ratioP2;P2;SDS_P1;SDS_P2;PMS_P1;PMS_P2;Temp;Humidity;BMP_temperature;BMP_pressure;BME280_temperature;BME280_humidity;BME280_pressure;Samples;Min_cycle;Max_cycle;Signal;HPM_P1;HPM_P2
2021/08/06 00:00:31;;;;;;;8.27;3.40;;;;;;;23.48;55.38;99352.50;3326093;29;20521;-74
2021/08/06 00:02:14;;;;;;;6.63;3.47;;;;;;;23.44;55.50;99353.38;3326128;29;20057;-72
2021/08/06 00:03:55;;;;;;;3.85;2.88;;;;;;;23.47;55.49;99350.09;3325045;29;20081;-72
2021/08/06 00:05:36;;;;;;;6.07;2.92;;;;;;;23.45;55.28;99355.00;3325707;29;20057;-73
2021/08/06 00:07:17;;;;;;;5.07;2.67;;;;;;;23.43;55.54;99354.47;3325746;29;20065;-72
2021/08/06 00:08:57;;;;;;;9.97;3.60;;;;;;;23.44;55.37;99364.25;3325095;29;20054;-72
2021/08/06 00:10:38;;;;;;;4.70;2.77;;;;;;;23.43;55.61;99355.28;3325925;29;20502;-75
2021/08/06 00:12:19;;;;;;;3.60;2.53;;;;;;;23.41;55.51;99349.31;3325603;29;20039;-73
2021/08/06 00:13:59;;;;;;;5.30;3.07;;;;;;;23.40;55.51;99349.63;3325060;29;20165;-73
2021/08/06 00:15:40;;;;;;;8.87;2.93;;;;;;;23.39;55.63;99351.53;3322479;29;20046;-74
2021/08/06 00:17:22;;;;;;;7.00;3.47;;;;;;;23.38;55.38;99352.59;3325529;29;20092;-74
2021/08/06 00:19:03;;;;;;;4.07;3.10;;;;;;;23.41;55.52;99351.22;3325861;29;20043;-73
2021/08/06 00:20:44;;;;;;;4.00;3.53;;;;;;;23.39;55.64;99343.38;3325692;29;20054;-73
2021/08/06 00:22:25;;;;;;;5.07;3.17;;;;;;;23.38;55.35;99347.16;3325382;29;20616;-74
2021/08/06 00:24:06;;;;;;;4.80;3.40;;;;;;;23.36;55.60;99338.47;3325757;29;20050;-73
2021/08/06 00:25:46;;;;;;;4.07;3.03;;;;;;;23.36;55.32;99340.41;3325802;29;20952;-73
2021/08/06 00:27:30;;;;;;;3.57;3.23;;;;;;;23.34;55.68;99335.25;3325834;29;20502;-72
2021/08/06 00:29:11;;;;;;;8.15;3.03;;;;;;;23.32;55.59;99331.22;3326040;29;20074;-73
2021/08/06 00:30:54;;;;;;;8.27;3.50;;;;;;;23.32;55.66;99331.22;3324830;29;20077;-72
2021/08/06 00:32:35;;;;;;;5.97;4.53;;;;;;;23.32;55.66;99326.56;3335166;29;20046;-74
2021/08/06 00:34:22;;;;;;;4.50;3.17;;;;;;;23.28;55.56;99315.47;3327394;29;20111;-72
2021/08/06 00:36:06;;;;;;;3.75;3.40;;;;;;;23.32;55.77;99314.91;3337386;29;20052;-73
2021/08/06 00:37:47;;;;;;;5.72;3.30;;;;;;;23.29;55.52;99310.84;3337173;29;20050;-73
2021/08/06 00:39:28;;;;;;;4.00;3.17;;;;;;;23.29;55.68;99306.22;3324591;29;20038;-72
2021/08/06 00:41:10;;;;;;;4.65;2.88;;;;;;;23.29;55.55;99310.84;3334792;29;20052;-73
2021/08/06 00:42:52;;;;;;;5.68;2.78;;;;;;;23.27;55.63;99302.16;3324095;29;20052;-74
2021/08/06 00:44:42;;;;;;;4.93;3.38;;;;;;;23.28;55.67;99309.19;3323321;29;20062;-72
2021/08/06 00:46:24;;;;;;;4.00;3.20;;;;;;;23.26;55.48;99309.50;3322223;29;20054;-72
2021/08/06 00:48:06;;;;;;;5.13;3.25;;;;;;;23.28;55.56;99309.19;3322024;29;20568;-73
2021/08/06 00:49:49;;;;;;;6.63;3.58;;;;;;;23.26;55.61;99311.44;3322095;29;20050;-73
2021/08/06 00:51:29;;;;;;;7.47;4.30;;;;;;;23.23;55.67;99301.94;3334519;29;20050;-75
2021/08/06 00:53:14;;;;;;;5.53;4.13;;;;;;;23.25;55.51;99309.78;3336912;29;20049;-74
2021/08/06 00:54:56;;;;;;;6.35;3.50;;;;;;;23.24;55.49;99314.41;3324605;29;20106;-74
2021/08/06 00:56:41;;;;;;;7.10;3.33;;;;;;;23.23;55.62;99312.81;3322523;29;20575;-74
2021/08/06 00:58:24;;;;;;;6.90;3.65;;;;;;;23.24;55.93;99322.56;3322382;29;20038;-73
2021/08/06 01:00:06;;;;;;;3.33;2.97;;;;;;;23.23;55.49;99318.25;3311642;29;20081;-73
2021/08/06 01:01:52;;;;;;;6.03;3.40;;;;;;;23.21;55.53;99325.06;3319652;29;20160;-71
2021/08/06 01:03:54;;;;;;;5.05;3.25;;;;;;;23.24;55.57;99324.50;3335045;29;20129;-73
2021/08/06 01:05:41;;;;;;;4.40;3.60;;;;;;;23.25;55.72;99328.81;3311509;29;20099;-73
2021/08/06 01:07:45;;;;;;;6.15;4.05;;;;;;;23.23;55.76;99331.00;3320549;29;20168;-74
2021/08/06 01:09:45;;;;;;;7.60;3.70;;;;;;;23.23;55.70;99322.84;3324215;29;20407;-73
2021/08/06 01:11:31;;;;;;;12.70;4.18;;;;;;;23.20;55.38;99326.94;3336845;29;20570;-72
2021/08/06 01:13:24;;;;;;;10.13;4.20;;;;;;;23.21;55.85;99322.34;3313176;29;20055;-72
2021/08/06 01:15:10;;;;;;;6.93;4.05;;;;;;;23.20;55.77;99334.31;3334982;29;20141;-71
2021/08/06 01:16:52;;;;;;;6.50;3.50;;;;;;;23.19;55.61;99325.34;3323971;29;20046;-74
2021/08/06 01:19:15;;;;;;;7.40;4.20;;;;;;;23.19;55.74;99325.34;3336200;29;20077;-73
2021/08/06 01:21:05;;;;;;;5.82;3.40;;;;;;;23.14;55.93;99316.44;3336763;29;20518;-73
2021/08/06 01:22:52;;;;;;;11.10;4.15;;;;;;;23.17;55.80;99318.56;3323948;29;20057;-74
2021/08/06 01:24:52;;;;;;;10.07;3.45;;;;;;;23.16;55.88;99316.97;3323735;29;20087;-74
2021/08/06 01:26:33;;;;;;;5.45;3.72;;;;;;;23.15;55.93;99310.69;3323886;29;20541;-73
2021/08/06 01:28:18;;;;;;;4.25;3.67;;;;;;;23.15;55.84;99310.69;3321397;29;20520;-73
2021/08/06 01:29:59;;;;;;;9.18;3.03;;;;;;;23.14;55.67;99308.28;3313610;29;20138;-72
2021/08/06 01:31:40;;;;;;;4.85;4.30;;;;;;;23.14;55.89;99314.50;3331926;29;20052;-74
2021/08/06 01:33:34;;;;;;;5.80;3.90;;;;;;;23.13;55.79;99307.47;3335829;29;20056;-72
2021/08/06 01:35:15;;;;;;;5.68;3.45;;;;;;;23.13;55.83;99312.91;3323852;29;20046;-74
2021/08/06 01:36:56;;;;;;;4.50;3.78;;;;;;;23.10;55.76;99302.59;3333903;29;20480;-73
2021/08/06 01:38:55;;;;;;;7.03;3.95;;;;;;;23.10;56.02;99293.63;3336578;29;20058;-72
2021/08/06 01:40:58;;;;;;;3.90;3.47;;;;;;;23.10;55.96;99297.16;3336437;29;20545;-72
2021/08/06 01:42:41;;;;;;;4.20;3.72;;;;;;;23.11;56.08;99296.06;3323697;29;20058;-72
2021/08/06 01:44:31;;;;;;;7.10;3.55;;;;;;;23.10;55.97;99297.16;3322179;29;20050;-74
2021/08/06 01:46:26;;;;;;;4.03;3.40;;;;;;;23.11;55.81;99303.41;3335153;29;20498;-73
2021/08/06 01:48:10;;;;;;;5.28;3.60;;;;;;;23.10;56.03;99307.22;3312360;29;20054;-74
2021/08/06 01:50:14;;;;;;;8.27;4.00;;;;;;;23.12;55.99;99310.47;3319684;29;20541;-74
2021/08/06 01:51:59;;;;;;;5.72;3.50;;;;;;;23.10;55.83;99301.78;3311290;29;20111;-72
2021/08/06 01:53:46;;;;;;;10.40;4.00;;;;;;;23.05;56.31;99295.31;3323266;29;20046;-72
2021/08/06 01:55:50;;;;;;;4.45;3.50;;;;;;;23.08;56.16;99305.59;3324857;29;20503;-71
2021/08/06 01:57:33;;;;;;;9.98;4.13;;;;;;;23.06;55.94;99299.63;3311204;29;20046;-73
2021/08/06 01:59:17;;;;;;;6.88;3.95;;;;;;;23.09;56.05;99303.69;3321414;29;20054;-73
2021/08/06 02:01:03;;;;;;;9.00;4.45;;;;;;;23.09;56.12;99292.81;3334559;29;20053;-72
2021/08/06 02:02:44;;;;;;;;;;;;;;;23.11;55.82;99298.78;3324157;29;20157;-73
2021/08/06 02:04:30;;;;;;;10.98;4.00;;;;;;;23.10;56.04;99296.34;3311002;29;19917;-75
2021/08/06 02:06:22;;;;;;;8.77;3.88;;;;;;;23.08;55.94;99297.44;3335100;29;20061;-75
2021/08/06 02:08:09;;;;;;;7.97;4.18;;;;;;;23.11;56.10;99297.97;3323728;29;20438;-75
2021/08/06 02:09:55;;;;;;;5.75;4.03;;;;;;;23.11;55.87;99297.97;3321743;29;20050;-74
2021/08/06 02:11:40;;;;;;;4.30;3.85;;;;;;;23.12;55.67;99296.88;3321959;29;20054;-72
2021/08/06 02:13:27;;;;;;;8.05;3.97;;;;;;;23.12;55.83;99303.13;3334553;29;20419;-73
2021/08/06 02:15:09;;;;;;;4.93;3.87;;;;;;;23.11;55.77;99298.78;3311157;29;20050;-73
2021/08/06 02:16:54;;;;;;;6.15;3.83;;;;;;;23.12;55.90;99286.81;3309211;29;20043;-73
2021/08/06 02:18:41;;;;;;;8.55;4.07;;;;;;;23.12;56.03;99291.44;3320732;29;20444;-72
2021/08/06 02:20:26;;;;;;;6.25;4.00;;;;;;;23.10;55.94;99289.00;3334132;29;20096;-72
2021/08/06 02:22:12;;;;;;;8.93;4.20;;;;;;;23.13;55.80;99287.59;3323819;29;20248;-73
2021/08/06 02:23:56;;;;;;;5.70;3.90;;;;;;;23.10;56.08;99280.84;3321801;29;20050;-73
2021/08/06 02:25:44;;;;;;;5.22;4.30;;;;;;;23.14;55.75;99281.91;3322205;29;20511;-73
2021/08/06 02:27:26;;;;;;;8.57;4.15;;;;;;;23.14;56.15;99278.38;3321340;29;20161;-72
2021/08/06 02:29:11;;;;;;;6.28;3.72;;;;;;;23.16;55.82;99281.63;3324394;29;20050;-73
2021/08/06 02:30:56;;;;;;;7.55;4.18;;;;;;;23.16;55.68;99268.03;3336291;29;20054;-73
2021/08/06 02:32:38;;;;;;;4.15;3.75;;;;;;;23.15;55.90;99260.94;3325436;29;20050;-74
2021/08/06 02:34:19;;;;;;;5.47;4.13;;;;;;;23.16;55.95;99249.78;3336359;29;20151;-74
2021/08/06 02:36:00;;;;;;;6.82;4.03;;;;;;;23.16;55.77;99246.28;3323565;29;20107;-73
2021/08/06 02:37:44;;;;;;;7.87;3.73;;;;;;;23.17;55.76;99256.84;3320973;29;20039;-74
2021/08/06 02:39:29;;;;;;;4.93;3.67;;;;;;;23.17;56.02;99253.31;3321710;29;20137;-75
2021/08/06 02:41:09;;;;;;;6.60;3.50;;;;;;;23.18;56.03;99260.38;3321500;29;20046;-73
2021/08/06 02:42:51;;;;;;;5.03;3.53;;;;;;;23.16;55.81;99252.50;3324050;29;20149;-73
2021/08/06 02:44:37;;;;;;;7.40;4.57;;;;;;;23.17;56.04;99256.03;3324802;29;20046;-73
2021/08/06 02:46:19;;;;;;;5.18;3.80;;;;;;;23.18;55.97;99260.38;3325734;29;20058;-74
2021/08/06 02:48:00;;;;;;;6.78;3.55;;;;;;;23.18;56.11;99254.94;3336196;29;20046;-74
2021/08/06 02:49:41;;;;;;;4.23;3.27;;;;;;;23.17;55.83;99250.59;3329255;29;20042;-73
2021/08/06 02:51:23;;;;;;;4.72;3.55;;;;;;;23.19;56.12;99254.66;3326076;29;20115;-74
2021/08/06 02:53:04;;;;;;;5.72;4.38;;;;;;;23.19;56.03;99251.13;3336112;29;20054;-74
2021/08/06 02:54:45;;;;;;;6.33;4.07;;;;;;;23.21;55.92;99251.66;3338071;29;20526;-73
2021/08/06 02:56:25;;;;;;;9.27;4.30;;;;;;;23.19;55.88;99249.22;3338437;29;20050;-74
2021/08/06 02:58:08;;;;;;;4.60;3.45;;;;;;;23.22;56.14;99254.06;3325521;29;20050;-72
2021/08/06 02:59:51;;;;;;;5.67;3.90;;;;;;;23.21;55.86;99248.94;3325724;29;20110;-73
2021/08/06 03:01:32;;;;;;;6.65;4.05;;;;;;;23.24;55.73;99253.78;3338536;29;20400;-74
2021/08/06 03:03:15;;;;;;;6.93;4.05;;;;;;;23.22;55.88;99251.34;3325474;29;20046;-72
2021/08/06 03:04:56;;;;;;;7.93;4.10;;;;;;;23.21;56.12;99246.22;3335790;29;20046;-74
2021/08/06 03:06:37;;;;;;;5.47;4.03;;;;;;;23.26;55.67;99257.03;3325632;29;20121;-73
2021/08/06 03:08:18;;;;;;;6.53;4.18;;;;;;;23.27;55.80;99269.53;3335703;29;20046;-74
2021/08/06 03:09:59;;;;;;;6.23;4.10;;;;;;;23.26;55.96;99266.00;3328861;29;20133;-73
2021/08/06 03:11:40;;;;;;;8.70;4.18;;;;;;;23.25;55.84;99255.41;3325784;29;20050;-72
2021/08/06 03:13:22;;;;;;;6.60;4.03;;;;;;;23.28;55.69;99254.81;3312848;29;20057;-73
2021/08/06 03:15:03;;;;;;;4.27;3.77;;;;;;;23.28;55.61;99261.09;3333259;29;20050;-73
2021/08/06 03:16:44;;;;;;;4.00;3.60;;;;;;;23.29;55.88;99261.88;3328013;29;20145;-74
2021/08/06 03:18:24;;;;;;;7.07;4.40;;;;;;;23.27;55.56;99250.50;3310395;29;20372;-73
2021/08/06 03:20:12;;;;;;;5.45;4.15;;;;;;;23.29;55.86;99253.72;3324206;29;20054;-73
2021/08/06 03:21:54;;;;;;;6.65;4.45;;;;;;;23.29;55.79;99254.53;3325385;29;20137;-75
2021/08/06 03:23:34;;;;;;;4.67;4.00;;;;;;;23.28;55.66;99254.81;3322968;29;20538;-72
2021/08/06 03:25:15;;;;;;;5.50;4.10;;;;;;;23.31;55.44;99256.94;3325328;29;20046;-72
2021/08/06 03:26:56;;;;;;;5.57;4.03;;;;;;;23.32;55.79;99255.88;3325525;29;20073;-73
2021/08/06 03:28:38;;;;;;;;;;;;;;;23.36;55.50;99266.97;3323460;29;20057;-71
2021/08/06 03:30:18;;;;;;;5.72;4.25;;;;;;;23.32;55.88;99255.88;3335162;29;20011;-73
2021/08/06 03:31:59;;;;;;;5.60;3.93;;;;;;;23.33;55.59;99268.34;3328667;29;20133;-72
2021/08/06 03:33:52;;;;;;;7.03;3.95;;;;;;;23.32;55.68;99264.03;3522288;27;21009;-72
2021/08/06 03:35:33;;;;;;;7.93;4.73;;;;;;;23.33;55.74;99256.66;3521528;28;20040;-73
2021/08/06 03:37:14;;;;;;;12.50;5.13;;;;;;;23.36;55.73;99267.78;3532735;28;20627;-74
2021/08/06 03:38:56;;;;;;;8.68;4.43;;;;;;;23.35;55.63;99260.72;3521535;28;20054;-72
2021/08/06 03:40:36;;;;;;;5.07;4.00;;;;;;;23.36;55.63;99262.34;3522156;28;20043;-73
2021/08/06 03:42:17;;;;;;;8.73;4.50;;;;;;;23.39;55.47;99264.50;3521114;28;20502;-73
2021/08/06 03:43:59;;;;;;;6.90;5.15;;;;;;;23.41;55.75;99267.72;3518700;28;20039;-72
2021/08/06 03:45:40;;;;;;;5.90;4.15;;;;;;;23.42;55.30;99268.53;3518817;28;20149;-73
2021/08/06 03:47:21;;;;;;;6.38;4.40;;;;;;;23.42;55.49;99272.06;3518830;28;20049;-73
2021/08/06 03:49:02;;;;;;;8.90;4.23;;;;;;;23.44;55.74;99272.59;3518695;28;20201;-73
2021/08/06 03:50:43;;;;;;;6.43;4.87;;;;;;;23.45;55.49;99267.97;3518123;28;20040;-73
2021/08/06 03:52:25;;;;;;;7.22;4.13;;;;;;;23.47;55.49;99268.50;3518400;28;20044;-73
2021/08/06 03:54:05;;;;;;;5.03;4.50;;;;;;;23.46;55.45;99262.22;3521794;28;20454;-73
2021/08/06 03:55:49;;;;;;;6.05;4.65;;;;;;;23.49;55.22;99255.38;3521051;28;20077;-74
2021/08/06 03:57:30;;;;;;;5.63;4.38;;;;;;;23.51;55.23;99258.63;3518618;28;20048;-73
2021/08/06 03:59:11;;;;;;;5.43;4.37;;;;;;;23.53;55.30;99251.00;3520832;28;20043;-72
2021/08/06 04:00:53;;;;;;;;;;;;;;;23.57;55.03;99253.94;3521255;28;20096;-72
2021/08/06 04:02:34;;;;;;;5.30;3.92;;;;;;;23.56;55.03;99255.03;3518104;28;20018;-73
2021/08/06 04:04:15;;;;;;;5.80;4.20;;;;;;;23.57;54.90;99256.66;3520940;28;20036;-72
2021/08/06 04:05:57;;;;;;;;;;;;;;;23.60;55.13;99253.38;3518678;28;20036;-73
2021/08/06 04:07:45;;;;;;;4.78;3.80;;;;;;;23.59;55.06;99249.00;3521589;28;19960;-71
2021/08/06 04:09:25;;;;;;;9.43;4.25;;;;;;;23.60;55.27;99250.66;3520948;28;20418;-72
2021/08/06 04:11:07;;;;;;;8.70;4.63;;;;;;;23.62;55.10;99245.72;3518223;28;20051;-73
2021/08/06 04:12:48;;;;;;;6.70;4.53;;;;;;;23.63;55.22;99245.44;3517936;28;20497;-72
2021/08/06 04:14:29;;;;;;;6.82;4.65;;;;;;;23.63;54.81;99244.63;3521504;28;20043;-73
2021/08/06 04:16:11;;;;;;;6.77;4.33;;;;;;;23.66;54.87;99250.28;3522332;28;20048;-73
2021/08/06 04:17:51;;;;;;;5.97;5.03;;;;;;;23.70;55.06;99239.63;3506713;28;20282;-71
2021/08/06 04:19:33;;;;;;;7.28;4.43;;;;;;;23.70;54.96;99243.16;3515255;28;20050;-72
2021/08/06 04:21:13;;;;;;;8.30;5.13;;;;;;;23.73;55.04;99244.53;3517785;28;20040;-75
2021/08/06 04:22:54;;;;;;;8.53;4.47;;;;;;;23.74;54.70;99240.69;3517805;28;20043;-74
2021/08/06 04:24:35;;;;;;;8.70;4.90;;;;;;;23.77;54.83;99233.84;3518003;28;20039;-75
2021/08/06 04:26:16;;;;;;;5.13;4.30;;;;;;;23.79;54.82;99232.44;3521455;28;20094;-73
2021/08/06 04:27:56;;;;;;;9.77;4.97;;;;;;;23.81;54.58;99241.13;3520543;28;20469;-73
2021/08/06 04:29:37;;;;;;;7.77;4.43;;;;;;;23.82;54.80;99236.50;3521332;28;20067;-75
2021/08/06 04:31:18;;;;;;;6.95;5.22;;;;;;;23.83;54.49;99238.94;3520507;28;20051;-74
2021/08/06 04:32:59;;;;;;;6.27;4.60;;;;;;;23.81;54.80;99235.69;3517341;28;20052;-75
2021/08/06 04:34:40;;;;;;;7.00;4.47;;;;;;;23.88;54.66;99243.47;3503913;28;20040;-73
2021/08/06 04:36:21;;;;;;;6.43;4.87;;;;;;;23.88;54.41;99244.31;3503679;28;20310;-76
2021/08/06 04:38:02;;;;;;;8.03;5.73;;;;;;;23.89;54.23;99245.91;3518469;28;20079;-73
2021/08/06 04:39:44;;;;;;;9.70;6.55;;;;;;;23.87;54.27;99256.28;3520957;28;20131;-73
2021/08/06 04:41:25;;;;;;;11.87;6.70;;;;;;;23.81;54.37;99262.91;3506721;28;20076;-76
2021/08/06 04:43:06;;;;;;;9.03;7.07;;;;;;;23.75;54.47;99260.53;3514915;28;20051;-73
2021/08/06 04:44:47;;;;;;;12.23;6.10;;;;;;;23.67;54.70;99262.81;3514436;28;20076;-74
2021/08/06 04:46:28;;;;;;;13.88;6.93;;;;;;;23.62;54.65;99262.03;3512729;28;20044;-75
2021/08/06 04:48:09;;;;;;;16.43;8.30;;;;;;;23.57;54.74;99262.94;3511218;28;20134;-72
2021/08/06 04:49:51;;;;;;;13.27;7.15;;;;;;;23.54;55.11;99268.13;3508259;28;20043;-72
2021/08/06 04:51:31;;;;;;;11.73;7.37;;;;;;;23.51;54.95;99264.06;3508104;28;20507;-72
2021/08/06 04:53:12;;;;;;;11.57;6.23;;;;;;;23.49;55.06;99266.25;3497182;28;20044;-74
2021/08/06 04:54:54;;;;;;;11.60;7.68;;;;;;;23.45;55.04;99265.25;3509268;28;20380;-73
2021/08/06 04:56:35;;;;;;;10.27;7.60;;;;;;;23.41;55.36;99267.72;3512069;28;20043;-72
2021/08/06 04:58:16;;;;;;;11.00;7.40;;;;;;;23.39;55.29;99278.09;3510786;28;20557;-72
2021/08/06 04:59:56;;;;;;;13.77;7.77;;;;;;;23.35;55.29;99277.03;3508272;28;20064;-72
2021/08/06 05:01:37;;;;;;;15.57;7.80;;;;;;;23.34;55.05;99272.72;3508045;28;20286;-72
2021/08/06 05:03:18;;;;;;;22.17;8.63;;;;;;;23.30;55.34;99283.34;3508012;28;20067;-71
2021/08/06 05:05:03;;;;;;;9.48;7.25;;;;;;;23.28;55.69;99277.41;3508781;28;20151;-71
2021/08/06 05:06:44;;;;;;;10.05;7.40;;;;;;;23.24;55.69;99279.06;3494154;28;20043;-70
2021/08/06 05:08:26;;;;;;;13.23;8.27;;;;;;;23.22;55.84;99275.00;3505521;28;20458;-71
2021/08/06 05:10:08;;;;;;;14.88;7.80;;;;;;;23.21;55.92;99276.13;3508259;28;20044;-70
2021/08/06 05:11:48;;;;;;;11.68;7.72;;;;;;;23.20;55.76;99277.19;3507846;28;20040;-72
2021/08/06 05:13:29;;;;;;;12.33;7.23;;;;;;;23.20;55.82;99274.50;3494061;28;20078;-70
2021/08/06 05:15:11;;;;;;;12.32;7.55;;;;;;;23.21;55.67;99268.78;3508060;28;20044;-71
2021/08/06 05:16:52;;;;;;;9.30;6.72;;;;;;;23.24;55.82;99264.66;3507984;28;20400;-70
2021/08/06 05:18:34;;;;;;;10.10;7.90;;;;;;;23.23;55.59;99276.63;3511363;28;20097;-71
2021/08/06 05:20:16;;;;;;;16.75;8.70;;;;;;;23.26;55.77;99273.34;3510484;28;20040;-70
2021/08/06 05:21:57;;;;;;;15.93;8.43;;;;;;;23.26;55.76;99273.34;3508066;28;20047;-70
2021/08/06 05:23:38;;;;;;;13.40;6.97;;;;;;;23.25;55.59;99272.53;3511589;28;20181;-72
2021/08/06 05:25:18;;;;;;;10.97;7.70;;;;;;;23.28;55.47;99279.28;3510362;28;20051;-72
2021/08/06 05:26:59;;;;;;;15.93;7.63;;;;;;;23.27;55.42;99274.97;3510228;28;20055;-73
2021/08/06 05:28:40;;;;;;;10.03;6.27;;;;;;;23.29;55.39;99268.13;3511557;28;20591;-72
2021/08/06 05:30:22;;;;;;;13.83;7.47;;;;;;;23.29;54.99;99272.78;3510169;28;20377;-72
2021/08/06 05:32:05;;;;;;;12.75;7.32;;;;;;;23.29;55.56;99268.13;3508121;28;20093;-73
2021/08/06 05:33:46;;;;;;;10.00;7.40;;;;;;;23.30;55.32;99268.94;3510759;28;20081;-71
2021/08/06 05:35:27;;;;;;;9.93;6.80;;;;;;;23.30;55.62;99269.75;3510430;28;20634;-72
2021/08/06 05:37:11;;;;;;;11.40;7.53;;;;;;;23.30;55.09;99268.94;3507856;28;20048;-72
2021/08/06 05:38:52;;;;;;;16.05;6.90;;;;;;;23.30;55.39;99260.78;3507272;28;20047;-69
2021/08/06 05:40:33;;;;;;;10.83;6.87;;;;;;;23.33;55.35;99268.34;3511071;28;20036;-71
2021/08/06 05:42:18;;;;;;;15.30;6.95;;;;;;;23.33;55.67;99273.78;3510025;28;20076;-70
2021/08/06 05:43:59;;;;;;;10.75;6.07;;;;;;;23.31;55.55;99259.66;3511042;28;20144;-71
2021/08/06 05:45:42;;;;;;;11.03;7.33;;;;;;;23.32;55.95;99265.94;3509809;28;20040;-72
2021/08/06 05:47:23;;;;;;;11.07;7.05;;;;;;;23.32;56.15;99266.75;3507463;28;20044;-73
2021/08/06 05:49:04;;;;;;;14.00;7.30;;;;;;;23.29;56.35;99268.13;3507127;28;20135;-74
2021/08/06 05:50:45;;;;;;;14.27;7.10;;;;;;;23.33;56.00;99268.34;3506957;28;20067;-74
2021/08/06 05:52:38;;;;;;;10.65;6.93;;;;;;;23.29;56.30;99261.88;3508922;28;20040;-74
